createdAt,value
2022-11-29T00:02:00.818Z,24.15
2022-11-29T00:04:30.634Z,22.17
2022-11-29T00:07:00.496Z,22.90
2022-11-29T00:09:30.314Z,22.60
2022-11-29T00:12:12.203Z,22.65
2022-11-29T00:14:43.141Z,21.88
2022-11-29T00:17:13.004Z,21.55
2022-11-29T00:19:45.122Z,22.00
2022-11-29T00:22:14.897Z,22.08
2022-11-29T00:24:44.871Z,23.08
2022-11-29T00:27:17.368Z,22.27
2022-11-29T00:29:47.259Z,22.27
2022-11-29T00:32:17.032Z,21.10
2022-11-29T00:34:46.880Z,22.70
2022-11-29T00:37:16.675Z,22.15
2022-11-29T00:39:46.531Z,22.40
2022-11-29T00:42:18.981Z,21.63
2022-11-29T00:44:48.754Z,23.38
2022-11-29T00:47:18.635Z,23.40
2022-11-29T00:49:48.432Z,22.70
2022-11-29T00:52:18.269Z,22.95
2022-11-29T00:54:48.142Z,22.73
2022-11-29T00:57:20.477Z,23.17
2022-11-29T00:59:50.257Z,22.90
2022-11-29T01:02:20.142Z,23.02
2022-11-29T01:04:50.009Z,23.88
2022-11-29T01:07:19.847Z,23.02
2022-11-29T01:09:49.595Z,23.20
2022-11-29T01:12:21.971Z,23.08
2022-11-29T01:14:51.700Z,23.27
2022-11-29T01:17:21.518Z,23.35
2022-11-29T01:19:51.306Z,23.42
2022-11-29T01:22:21.128Z,22.80
2022-11-29T01:24:51.175Z,22.15
2022-11-29T01:27:23.603Z,21.60
2022-11-29T01:29:53.488Z,22.17
2022-11-29T01:32:23.359Z,22.55
2022-11-29T01:34:53.407Z,21.90
2022-11-29T01:37:23.250Z,21.00
2022-11-29T01:39:53.231Z,21.13
2022-11-29T01:42:25.724Z,20.02
2022-11-29T01:45:10.999Z,19.80
2022-11-29T01:47:45.606Z,19.77
2022-11-29T01:52:45.712Z,19.17
2022-11-29T01:55:16.147Z,18.77
2022-11-29T01:57:49.454Z,19.58
2022-11-29T02:00:21.836Z,19.98
2022-11-29T02:02:56.782Z,19.08
2022-11-29T02:05:28.336Z,19.02
2022-11-29T02:08:00.405Z,18.70
2022-11-29T02:10:42.859Z,18.00
2022-11-29T02:13:26.533Z,18.05
2022-11-29T02:16:02.744Z,17.10
2022-11-29T02:18:42.919Z,18.17
2022-11-29T02:21:28.574Z,15.82
2022-11-29T02:24:17.744Z,16.35
2022-11-29T02:27:09.408Z,13.90
2022-11-29T02:30:07.212Z,14.25
2022-11-29T02:33:05.071Z,13.63
2022-11-29T02:35:51.191Z,12.43
2022-11-29T02:38:41.840Z,12.48
2022-11-29T02:41:29.932Z,11.63
2022-11-29T02:44:25.676Z,11.68
2022-11-29T02:47:08.691Z,12.32
2022-11-29T02:49:52.408Z,12.40
2022-11-29T02:52:28.763Z,11.85
2022-11-29T02:55:07.407Z,12.48
2022-11-29T02:57:45.771Z,12.68
2022-11-29T03:00:18.492Z,12.10
2022-11-29T03:02:55.996Z,12.25
2022-11-29T03:05:39.933Z,11.80
2022-11-29T03:08:16.679Z,12.02
2022-11-29T03:10:58.212Z,11.70
2022-11-29T03:13:44.540Z,11.38
2022-11-29T03:16:21.415Z,10.95
2022-11-29T03:19:06.544Z,10.70
2022-11-29T03:21:48.499Z,10.70
2022-11-29T03:24:23.680Z,10.10
2022-11-29T03:27:02.589Z,10.45
2022-11-29T03:29:39.235Z,9.32
2022-11-29T03:32:15.240Z,9.55
2022-11-29T03:34:57.753Z,9.65
2022-11-29T03:37:38.028Z,9.57
2022-11-29T03:40:11.191Z,9.00
2022-11-29T03:42:47.656Z,9.23
2022-11-29T03:45:25.499Z,8.77
2022-11-29T03:48:02.645Z,9.57
2022-11-29T03:50:39.088Z,8.85
2022-11-29T03:53:19.957Z,9.50
2022-11-29T03:55:55.128Z,8.68
2022-11-29T03:58:38.530Z,9.60
2022-11-29T04:01:38.171Z,8.95
2022-11-29T04:04:44.192Z,8.80
2022-11-29T04:07:35.161Z,9.50
2022-11-29T04:10:39.494Z,8.80
2022-11-29T04:13:47.698Z,9.43
2022-11-29T04:16:50.709Z,8.85
2022-11-29T04:19:52.412Z,9.35
2022-11-29T04:22:39.248Z,9.63
2022-11-29T04:25:42.580Z,9.43
2022-11-29T04:28:52.530Z,10.18
2022-11-29T04:31:37.258Z,9.75
2022-11-29T04:34:31.140Z,10.57
2022-11-29T04:37:17.385Z,9.82
2022-11-29T04:40:06.215Z,10.70
2022-11-29T04:42:57.278Z,10.65
2022-11-29T04:45:52.676Z,9.70
2022-11-29T04:48:38.603Z,10.48
2022-11-29T04:51:19.546Z,10.30
2022-11-29T04:53:56.393Z,9.32
2022-11-29T04:56:38.995Z,10.13
2022-11-29T04:59:18.553Z,10.23
2022-11-29T05:02:00.024Z,11.15
2022-11-29T05:04:36.938Z,10.07
2022-11-29T05:07:13.916Z,10.27
2022-11-29T05:09:58.909Z,10.30
2022-11-29T05:12:36.736Z,10.27
2022-11-29T05:15:34.631Z,11.23
2022-11-29T05:18:14.344Z,11.65
2022-11-29T05:20:50.860Z,12.07
2022-11-29T05:23:32.389Z,12.50
2022-11-29T05:26:07.795Z,12.00
2022-11-29T05:28:48.999Z,12.25
2022-11-29T05:31:43.199Z,12.38
2022-11-29T05:34:35.914Z,12.52
2022-11-29T05:37:17.736Z,11.32
2022-11-29T05:40:00.253Z,12.02
2022-11-29T05:42:59.148Z,12.38
2022-11-29T05:45:34.933Z,12.55
2022-11-29T05:48:16.539Z,13.35
2022-11-29T05:50:50.608Z,13.57
2022-11-29T05:53:26.236Z,13.55
2022-11-29T05:56:06.449Z,15.75
2022-11-29T05:58:44.351Z,13.48
2022-11-29T06:01:23.194Z,14.35
2022-11-29T06:04:07.901Z,12.75
2022-11-29T06:06:46.603Z,14.55
2022-11-29T06:09:22.039Z,14.98
2022-11-29T06:11:56.628Z,14.88
2022-11-29T06:17:39.184Z,15.93
2022-11-29T06:20:29.159Z,16.42
2022-11-29T06:23:13.554Z,16.67
2022-11-29T06:26:00.655Z,18.30
2022-11-29T06:28:42.998Z,17.40
2022-11-29T06:31:20.197Z,18.98
2022-11-29T06:33:58.980Z,17.10
2022-11-29T06:36:37.157Z,18.67
2022-11-29T06:39:07.889Z,18.73
2022-11-29T06:41:38.417Z,18.77
2022-11-29T06:44:09.082Z,18.67
2022-11-29T06:46:48.818Z,19.55
2022-11-29T06:49:26.735Z,17.30
2022-11-29T06:52:09.411Z,18.25
2022-11-29T06:54:51.779Z,16.73
2022-11-29T06:57:27.924Z,15.45
2022-11-29T07:00:06.586Z,16.30
2022-11-29T07:02:57.770Z,17.10
2022-11-29T07:05:31.337Z,15.65
2022-11-29T07:08:06.156Z,16.50
2022-11-29T07:10:39.203Z,16.80
2022-11-29T07:13:09.476Z,17.10
2022-11-29T07:15:41.600Z,16.70
2022-11-29T07:18:24.971Z,15.73
2022-11-29T07:21:06.395Z,12.75
2022-11-29T07:23:46.825Z,15.40
2022-11-29T07:26:25.308Z,14.98
2022-11-29T07:29:08.074Z,13.38
2022-11-29T07:31:47.695Z,13.40
2022-11-29T07:34:24.390Z,13.13
2022-11-29T07:37:03.620Z,12.75
2022-11-29T07:39:46.623Z,12.73
2022-11-29T07:42:26.160Z,12.02
2022-11-29T07:45:06.356Z,13.60
2022-11-29T07:47:36.400Z,11.48
2022-11-29T07:50:06.962Z,11.40
2022-11-29T07:52:36.852Z,10.80
2022-11-29T07:55:18.679Z,11.18
2022-11-29T07:57:49.602Z,10.75
2022-11-29T08:00:20.816Z,11.05
2022-11-29T08:02:52.179Z,10.60
2022-11-29T08:05:23.153Z,11.32
2022-11-29T08:07:54.530Z,10.80
2022-11-29T08:10:27.018Z,9.82
2022-11-29T08:12:56.956Z,9.63
2022-11-29T08:15:27.895Z,10.40
2022-11-29T08:17:57.699Z,9.30
2022-11-29T08:20:27.512Z,8.52
2022-11-29T08:22:58.464Z,8.82
2022-11-29T08:25:31.221Z,9.07
2022-11-29T08:28:01.128Z,8.85
2022-11-29T08:30:30.988Z,9.10
2022-11-29T08:33:00.833Z,9.40
2022-11-29T08:35:30.622Z,11.15
2022-11-29T08:38:00.442Z,12.60
2022-11-29T08:40:33.420Z,12.75
2022-11-29T08:43:03.464Z,13.20
2022-11-29T08:45:33.297Z,12.85
2022-11-29T08:48:03.089Z,13.75
2022-11-29T08:50:32.887Z,15.57
2022-11-29T08:53:15.180Z,16.42
2022-11-29T08:55:47.664Z,16.10
2022-11-29T08:58:18.472Z,16.80
2022-11-29T09:00:48.713Z,17.25
2022-11-29T09:03:31.125Z,17.60
2022-11-29T09:06:00.976Z,18.50
2022-11-29T09:08:30.761Z,18.00
2022-11-29T09:11:03.168Z,19.50
2022-11-29T09:13:32.949Z,20.83
2022-11-29T09:16:02.862Z,23.85
2022-11-29T09:18:32.716Z,23.38
2022-11-29T09:21:02.440Z,26.63
2022-11-29T09:23:32.165Z,25.02
2022-11-29T09:26:04.624Z,25.73
2022-11-29T09:28:34.893Z,23.27
2022-11-29T09:31:08.713Z,20.65
2022-11-29T09:33:39.866Z,20.15
2022-11-29T09:36:11.841Z,22.05
2022-11-29T09:38:42.313Z,19.75
2022-11-29T09:41:37.629Z,18.67
2022-11-29T09:46:47.975Z,20.50
2022-11-29T09:49:35.936Z,18.85
2022-11-29T09:52:16.336Z,20.30
2022-11-29T09:54:55.136Z,20.42
2022-11-29T09:57:28.208Z,20.35
2022-11-29T10:00:00.847Z,19.05
2022-11-29T10:02:36.122Z,16.63
2022-11-29T10:05:13.668Z,16.63
2022-11-29T10:07:48.969Z,16.13
2022-11-29T10:10:23.460Z,17.13
2022-11-29T10:12:59.220Z,17.88
2022-11-29T10:15:35.987Z,23.50
2022-11-29T10:18:13.802Z,26.65
2022-11-29T10:20:49.189Z,21.98
2022-11-29T10:23:25.152Z,16.45
2022-11-29T10:25:56.437Z,15.43
2022-11-29T10:28:31.593Z,16.17
2022-11-29T10:31:08.702Z,14.70
2022-11-29T10:33:42.952Z,14.13
2022-11-29T10:36:19.516Z,14.60
2022-11-29T10:38:50.950Z,14.02
2022-11-29T10:41:25.123Z,14.32
2022-11-29T10:43:58.788Z,13.85
2022-11-29T10:46:32.891Z,13.95
2022-11-29T10:49:05.505Z,13.95
2022-11-29T10:51:36.573Z,13.38
2022-11-29T10:54:31.268Z,13.27
2022-11-29T10:57:04.289Z,13.25
2022-11-29T10:59:36.953Z,13.10
2022-11-29T11:02:06.997Z,13.80
2022-11-29T11:04:45.440Z,13.20
2022-11-29T11:07:26.125Z,13.43
2022-11-29T11:09:59.409Z,14.30
2022-11-29T11:12:31.547Z,14.52
2022-11-29T11:15:30.188Z,15.48
2022-11-29T11:18:03.865Z,15.65
2022-11-29T11:20:35.425Z,15.45
2022-11-29T11:23:06.920Z,14.82
2022-11-29T11:25:39.892Z,16.13
2022-11-29T11:28:21.746Z,16.13
2022-11-29T11:30:59.997Z,15.95
2022-11-29T11:33:32.741Z,16.27
2022-11-29T11:36:12.705Z,16.52
2022-11-29T11:38:44.606Z,16.08
2022-11-29T11:41:21.768Z,17.23
2022-11-29T11:43:59.032Z,18.23
2022-11-29T11:46:49.617Z,18.05
2022-11-29T11:49:29.170Z,17.20
2022-11-29T11:52:00.107Z,16.65
2022-11-29T11:54:31.403Z,16.30
2022-11-29T11:57:02.181Z,16.15
2022-11-29T11:59:32.441Z,15.55
2022-11-29T12:02:05.029Z,15.25
2022-11-29T12:04:40.316Z,16.25
2022-11-29T12:07:45.196Z,14.60
2022-11-29T12:10:20.099Z,15.32
2022-11-29T12:12:52.074Z,12.52
2022-11-29T12:15:24.769Z,14.43
2022-11-29T12:18:04.771Z,12.10
2022-11-29T12:20:41.296Z,12.30
2022-11-29T12:23:28.649Z,11.98
2022-11-29T12:26:02.937Z,11.55
2022-11-29T12:28:36.262Z,12.90
2022-11-29T12:31:19.464Z,12.15
2022-11-29T12:33:59.407Z,11.68
2022-11-29T12:36:37.726Z,12.27
2022-11-29T12:39:30.825Z,11.25
2022-11-29T12:42:06.128Z,11.60
2022-11-29T12:44:49.656Z,12.35
2022-11-29T12:47:35.722Z,12.20
2022-11-29T12:50:18.405Z,12.07
2022-11-29T12:52:54.768Z,11.90
2022-11-29T12:55:28.965Z,12.55
2022-11-29T12:58:09.518Z,13.05
2022-11-29T13:00:49.364Z,12.48
2022-11-29T13:03:25.432Z,12.38
2022-11-29T13:06:11.379Z,12.27
2022-11-29T13:09:00.096Z,12.07
2022-11-29T13:11:33.201Z,12.45
2022-11-29T13:14:41.641Z,12.93
2022-11-29T13:17:04.958Z,12.20
2022-11-29T13:19:42.164Z,13.25
2022-11-29T13:22:19.948Z,11.98
2022-11-29T13:24:54.281Z,12.45
2022-11-29T13:27:29.960Z,12.52
2022-11-29T13:30:02.020Z,13.80
2022-11-29T13:32:38.001Z,11.98
2022-11-29T13:35:14.707Z,12.90
2022-11-29T13:37:55.678Z,12.50
2022-11-29T13:40:39.358Z,13.15
2022-11-29T13:43:20.435Z,13.27
2022-11-29T13:45:55.144Z,14.23
2022-11-29T13:48:37.902Z,12.65
2022-11-29T13:51:30.721Z,13.07
2022-11-29T13:54:05.328Z,12.98
2022-11-29T13:56:43.314Z,12.05
2022-11-29T13:59:21.267Z,12.93
2022-11-29T14:01:54.118Z,13.27
2022-11-29T14:04:37.372Z,12.70
2022-11-29T14:07:11.000Z,14.13
2022-11-29T14:09:50.152Z,13.98
2022-11-29T14:12:35.973Z,12.20
2022-11-29T14:15:23.633Z,13.50
2022-11-29T14:17:56.144Z,13.23
2022-11-29T14:20:48.020Z,12.85
2022-11-29T14:23:20.732Z,12.77
2022-11-29T14:26:26.613Z,12.95
2022-11-29T14:29:01.235Z,13.60
2022-11-29T14:31:50.313Z,13.55
2022-11-29T14:34:33.223Z,13.80
2022-11-29T14:37:09.610Z,14.00
2022-11-29T14:39:47.201Z,14.55
2022-11-29T14:42:20.209Z,15.38
2022-11-29T14:44:56.139Z,15.15
2022-11-29T14:47:30.008Z,14.40
2022-11-29T14:50:03.715Z,14.60
2022-11-29T14:52:38.572Z,14.93
2022-11-29T14:55:12.000Z,13.55
2022-11-29T14:58:12.370Z,15.07
2022-11-29T15:01:08.092Z,14.43
2022-11-29T15:03:45.387Z,13.18
2022-11-29T15:06:19.794Z,13.25
2022-11-29T15:08:58.509Z,12.68
2022-11-29T15:11:50.179Z,12.45
2022-11-29T15:14:28.411Z,14.50
2022-11-29T15:17:18.635Z,12.57
2022-11-29T15:20:10.178Z,12.48
2022-11-29T15:22:51.299Z,12.77
2022-11-29T15:25:23.218Z,14.32
2022-11-29T15:27:54.565Z,13.98
2022-11-29T15:30:32.092Z,14.40
2022-11-29T15:33:07.693Z,12.25
2022-11-29T15:35:38.924Z,13.68
2022-11-29T15:38:08.798Z,13.05
2022-11-29T15:40:40.910Z,12.32
2022-11-29T15:43:18.298Z,12.35
2022-11-29T15:45:54.210Z,12.95
2022-11-29T15:48:28.701Z,13.23
2022-11-29T15:53:38.659Z,13.02
2022-11-29T15:56:15.218Z,13.30
2022-11-29T15:58:46.226Z,13.43
2022-11-29T16:01:22.758Z,13.52
2022-11-29T16:03:57.696Z,12.88
2022-11-29T16:06:32.178Z,13.15
2022-11-29T16:09:03.673Z,14.13
2022-11-29T16:11:34.459Z,13.68
2022-11-29T16:14:16.689Z,14.52
2022-11-29T16:16:49.113Z,14.25
2022-11-29T16:19:28.081Z,13.43
2022-11-29T16:22:25.477Z,12.77
2022-11-29T16:25:03.429Z,14.95
2022-11-29T16:27:35.607Z,13.57
2022-11-29T16:30:05.821Z,14.27
2022-11-29T16:32:37.706Z,13.63
2022-11-29T16:35:17.843Z,13.15
2022-11-29T16:37:49.584Z,13.98
2022-11-29T16:40:24.656Z,14.93
2022-11-29T16:43:10.471Z,13.75
2022-11-29T16:45:41.653Z,13.95
2022-11-29T16:48:31.685Z,14.90
2022-11-29T16:51:26.314Z,14.02
2022-11-29T16:53:57.103Z,14.18
2022-11-29T16:56:29.968Z,14.60
2022-11-29T16:59:20.543Z,13.88
2022-11-29T17:01:56.955Z,15.25
2022-11-29T17:04:27.188Z,14.82
2022-11-29T17:07:00.136Z,15.15
2022-11-29T17:09:32.592Z,14.43
2022-11-29T17:12:03.386Z,14.45
2022-11-29T17:14:34.116Z,14.82
2022-11-29T17:17:04.089Z,16.63
2022-11-29T17:19:34.060Z,17.90
2022-11-29T17:22:06.648Z,14.60
2022-11-29T17:24:36.512Z,15.80
2022-11-29T17:27:06.410Z,15.90
2022-11-29T17:29:36.412Z,16.23
2022-11-29T17:32:06.406Z,17.00
2022-11-29T17:34:36.290Z,17.50
2022-11-29T17:37:08.620Z,17.48
2022-11-29T17:39:38.500Z,17.55
2022-11-29T17:42:08.420Z,17.40
2022-11-29T17:44:38.173Z,18.10
2022-11-29T17:47:08.115Z,18.50
2022-11-29T17:49:37.880Z,17.95
2022-11-29T17:52:10.785Z,19.65
2022-11-29T17:54:40.593Z,18.65
2022-11-29T17:57:10.496Z,18.52
2022-11-29T17:59:40.295Z,19.77
2022-11-29T18:02:10.150Z,19.30
2022-11-29T18:04:42.239Z,18.70
2022-11-29T18:07:17.259Z,19.50
2022-11-29T18:09:48.963Z,20.77
2022-11-29T18:12:20.152Z,21.73
2022-11-29T18:14:50.782Z,21.15
2022-11-29T18:17:20.629Z,22.42
2022-11-29T18:19:50.425Z,22.23
2022-11-29T18:22:22.945Z,21.92
2022-11-29T18:24:57.664Z,22.17
2022-11-29T18:27:39.793Z,20.92
2022-11-29T18:30:11.659Z,21.17
2022-11-29T18:32:41.480Z,23.52
2022-11-29T18:35:12.276Z,23.15
2022-11-29T18:38:13.405Z,24.13
2022-11-29T18:40:34.581Z,23.48
2022-11-29T18:43:04.493Z,24.50
2022-11-29T18:45:37.834Z,24.20
2022-11-29T18:48:08.595Z,22.58
2022-11-29T18:50:38.503Z,23.30
2022-11-29T18:53:10.904Z,24.83
2022-11-29T18:55:40.751Z,26.38
2022-11-29T18:58:10.613Z,24.65
2022-11-29T19:00:40.892Z,24.88
2022-11-29T19:03:10.764Z,24.02
2022-11-29T19:05:40.619Z,25.40
2022-11-29T19:08:13.153Z,24.20
2022-11-29T19:10:43.359Z,22.90
2022-11-29T19:13:13.172Z,24.00
2022-11-29T19:15:42.972Z,22.92
2022-11-29T19:18:12.858Z,23.17
2022-11-29T19:20:42.742Z,23.15
2022-11-29T19:23:16.372Z,22.52
2022-11-29T19:25:46.147Z,23.60
2022-11-29T19:28:15.973Z,25.15
2022-11-29T19:30:45.779Z,24.90
2022-11-29T19:33:16.466Z,25.55
2022-11-29T19:35:46.220Z,24.52
2022-11-29T19:38:18.681Z,25.25
2022-11-29T19:40:48.542Z,25.30
2022-11-29T19:43:18.329Z,24.02
2022-11-29T19:45:48.209Z,24.40
2022-11-29T19:48:18.656Z,23.77
2022-11-29T19:50:48.504Z,24.52
2022-11-29T19:53:21.504Z,24.80
2022-11-29T19:55:51.314Z,24.38
2022-11-29T19:58:21.175Z,24.60
2022-11-29T20:00:51.009Z,25.55
2022-11-29T20:03:21.093Z,26.20
2022-11-29T20:05:57.568Z,26.40
2022-11-29T20:08:30.669Z,25.10
2022-11-29T20:11:07.912Z,26.02
2022-11-29T20:13:38.033Z,23.85
2022-11-29T20:16:10.415Z,25.42
2022-11-29T20:18:45.700Z,25.13
2022-11-29T20:21:21.301Z,24.48
2022-11-29T20:23:58.229Z,24.85
2022-11-29T20:26:29.366Z,24.35
2022-11-29T20:28:59.180Z,26.00
2022-11-29T20:31:29.437Z,24.95
2022-11-29T20:34:00.043Z,25.10
2022-11-29T20:36:42.736Z,24.45
2022-11-29T20:39:30.220Z,23.77
2022-11-29T20:42:18.736Z,25.50
2022-11-29T20:44:54.860Z,24.20
2022-11-29T20:47:26.867Z,25.67
2022-11-29T20:49:57.698Z,25.95
2022-11-29T20:52:37.863Z,25.55
2022-11-29T20:55:11.076Z,25.55
2022-11-29T20:57:40.931Z,26.55
2022-11-29T21:00:15.720Z,25.02
2022-11-29T21:02:45.572Z,25.05
2022-11-29T21:05:16.323Z,25.83
2022-11-29T21:07:46.782Z,27.08
2022-11-29T21:10:19.468Z,26.70
2022-11-29T21:12:49.829Z,26.00
2022-11-29T21:15:20.683Z,26.85
2022-11-29T21:17:51.154Z,28.48
2022-11-29T21:20:24.649Z,26.48
2022-11-29T21:23:01.621Z,27.00
2022-11-29T21:25:45.839Z,26.10
2022-11-29T21:28:17.533Z,27.35
2022-11-29T21:30:48.011Z,27.42
2022-11-29T21:33:18.309Z,27.92
2022-11-29T21:35:48.856Z,26.48
2022-11-29T21:38:24.933Z,26.50
2022-11-29T21:40:57.336Z,26.90
2022-11-29T21:43:57.961Z,27.00
2022-11-29T21:46:16.974Z,26.35
2022-11-29T21:48:46.869Z,26.13
2022-11-29T21:51:16.712Z,25.45
2022-11-29T21:53:47.492Z,25.30
2022-11-29T21:56:19.881Z,26.98
2022-11-29T21:58:49.669Z,26.05
2022-11-29T22:01:21.621Z,25.13
2022-11-29T22:03:54.392Z,27.77
2022-11-29T22:06:26.154Z,26.08
2022-11-29T22:08:56.000Z,25.75
2022-11-29T22:11:35.521Z,26.20
2022-11-29T22:14:16.207Z,26.27
2022-11-29T22:16:47.907Z,26.85
2022-11-29T22:19:19.145Z,28.05
2022-11-29T22:21:50.565Z,25.27
2022-11-29T22:24:22.238Z,26.45
2022-11-29T22:26:56.082Z,27.13
2022-11-29T22:29:27.049Z,26.25
2022-11-29T22:31:59.379Z,26.67
2022-11-29T22:34:29.801Z,28.25
2022-11-29T22:36:59.663Z,25.40
2022-11-29T22:39:29.455Z,25.92
2022-11-29T22:42:01.922Z,27.55
2022-11-29T22:44:31.639Z,25.90
2022-11-29T22:47:01.475Z,27.33
2022-11-29T22:49:33.184Z,27.33
2022-11-29T22:52:03.134Z,26.23
2022-11-29T22:54:32.944Z,26.58
2022-11-29T22:57:05.325Z,26.98
2022-11-29T22:59:35.101Z,28.10
2022-11-29T23:02:04.984Z,30.70
2022-11-29T23:04:34.788Z,27.85
2022-11-29T23:07:04.578Z,31.17
2022-11-29T23:09:34.461Z,30.02
2022-11-29T23:12:07.409Z,29.40
2022-11-29T23:14:37.222Z,30.10
2022-11-29T23:17:07.420Z,31.60
2022-11-29T23:19:37.220Z,29.25
2022-11-29T23:22:06.993Z,29.55
2022-11-29T23:24:36.874Z,29.90
2022-11-29T23:27:09.261Z,29.25
2022-11-29T23:29:39.022Z,32.22
2022-11-29T23:32:08.854Z,32.47
2022-11-29T23:34:38.644Z,31.70
2022-11-29T23:37:08.423Z,32.60
2022-11-29T23:39:38.163Z,30.80
2022-11-29T23:42:10.631Z,32.75
2022-11-29T23:44:40.430Z,32.40
2022-11-29T23:47:10.214Z,30.65
2022-11-29T23:49:39.968Z,34.60
2022-11-29T23:52:09.752Z,32.58
2022-11-29T23:54:39.531Z,32.47
2022-11-29T23:57:11.870Z,31.67
2022-11-29T23:59:41.685Z,31.90
